createdAt,value
2022-12-29T00:01:48.485Z,14.70
2022-12-29T00:04:16.551Z,15.67
2022-12-29T00:06:44.005Z,13.03
2022-12-29T00:09:13.581Z,15.70
2022-12-29T00:11:40.456Z,11.98
2022-12-29T00:14:27.819Z,11.97
2022-12-29T00:16:55.924Z,9.97
2022-12-29T00:19:42.187Z,13.30
2022-12-29T00:22:32.170Z,15.73
2022-12-29T00:25:17.445Z,10.75
2022-12-29T00:28:07.302Z,9.27
2022-12-29T00:30:54.928Z,13.45
2022-12-29T00:33:41.683Z,11.10
2022-12-29T00:36:12.881Z,11.83
2022-12-29T00:39:03.424Z,9.37
2022-12-29T00:44:15.193Z,9.83
2022-12-29T00:46:43.454Z,12.73
2022-12-29T00:49:31.412Z,10.03
2022-12-29T00:52:03.365Z,8.43
2022-12-29T00:54:32.965Z,8.93
2022-12-29T00:57:00.231Z,10.10
2022-12-29T00:59:27.389Z,7.93
2022-12-29T01:01:55.595Z,8.30
2022-12-29T01:04:24.199Z,10.90
2022-12-29T01:06:51.080Z,8.73
2022-12-29T01:09:37.305Z,7.63
2022-12-29T01:12:05.553Z,8.23
2022-12-29T01:14:32.294Z,6.93
2022-12-29T01:16:59.309Z,7.90
2022-12-29T01:19:26.166Z,6.73
2022-12-29T01:21:53.146Z,7.17
2022-12-29T01:24:21.352Z,7.10
2022-12-29T01:26:49.600Z,6.07
2022-12-29T01:29:16.513Z,6.63
2022-12-29T01:31:44.041Z,7.00
2022-12-29T01:34:10.641Z,8.40
2022-12-29T01:36:37.441Z,9.20
2022-12-29T01:39:04.070Z,8.00
2022-12-29T01:41:30.689Z,8.50
2022-12-29T01:44:00.355Z,7.13
2022-12-29T01:46:47.905Z,6.90
2022-12-29T01:49:28.329Z,7.23
2022-12-29T01:54:32.226Z,8.27
2022-12-29T01:57:02.555Z,8.57
2022-12-29T01:59:39.516Z,6.40
2022-12-29T02:02:07.045Z,7.10
2022-12-29T02:04:36.005Z,7.47
2022-12-29T02:07:11.189Z,6.73
2022-12-29T02:09:38.115Z,7.77
2022-12-29T02:12:04.902Z,7.77
2022-12-29T02:14:32.214Z,7.10
2022-12-29T02:17:07.480Z,11.00
2022-12-29T02:19:56.099Z,8.40
2022-12-29T02:22:25.745Z,10.67
2022-12-29T02:25:04.181Z,10.77
2022-12-29T02:28:04.745Z,8.17
2022-12-29T02:30:55.751Z,10.57
2022-12-29T02:33:52.452Z,12.53
2022-12-29T02:36:38.669Z,12.07
2022-12-29T02:39:33.332Z,10.03
2022-12-29T02:42:05.551Z,10.97
2022-12-29T02:44:56.166Z,11.10
2022-12-29T02:47:43.024Z,12.53
2022-12-29T02:50:15.114Z,16.43
2022-12-29T02:52:49.307Z,14.23
2022-12-29T02:55:16.437Z,10.23
2022-12-29T02:57:43.323Z,8.67
2022-12-29T03:00:18.874Z,7.63
2022-12-29T03:02:45.581Z,7.50
2022-12-29T03:05:27.102Z,8.67
2022-12-29T03:08:23.946Z,8.03
2022-12-29T03:11:00.063Z,10.13
2022-12-29T03:13:53.396Z,7.70
2022-12-29T03:16:30.028Z,8.60
2022-12-29T03:19:03.269Z,7.47
2022-12-29T03:22:01.462Z,9.20
2022-12-29T03:24:32.837Z,7.23
2022-12-29T03:27:05.067Z,5.80
2022-12-29T03:29:36.765Z,6.93
2022-12-29T03:32:05.838Z,5.73
2022-12-29T03:34:34.325Z,6.23
2022-12-29T03:37:09.166Z,6.20
2022-12-29T03:39:36.078Z,9.43
2022-12-29T03:42:10.011Z,6.70
2022-12-29T03:44:40.267Z,6.67
2022-12-29T03:47:08.265Z,7.47
2022-12-29T03:49:35.253Z,7.50
2022-12-29T03:52:01.910Z,7.20
2022-12-29T03:54:28.503Z,6.07
2022-12-29T03:56:55.168Z,6.67
2022-12-29T03:59:21.798Z,5.93
2022-12-29T04:01:48.591Z,8.00
2022-12-29T04:04:15.350Z,5.97
2022-12-29T04:06:43.224Z,6.87
2022-12-29T04:09:11.240Z,7.43
2022-12-29T04:11:37.872Z,7.33
2022-12-29T04:14:04.467Z,12.57
2022-12-29T04:16:31.135Z,12.43
2022-12-29T04:18:57.966Z,8.43
2022-12-29T04:21:25.600Z,9.93
2022-12-29T04:23:52.188Z,11.27
2022-12-29T04:26:18.965Z,9.17
2022-12-29T04:28:45.595Z,9.77
2022-12-29T04:31:12.447Z,6.90
2022-12-29T04:33:39.187Z,10.33
2022-12-29T04:36:05.910Z,7.90
2022-12-29T04:38:32.767Z,8.47
2022-12-29T04:41:03.185Z,7.83
2022-12-29T04:45:56.766Z,11.10
2022-12-29T04:48:23.381Z,6.97
2022-12-29T04:50:50.901Z,9.00
2022-12-29T04:53:18.480Z,9.27
2022-12-29T04:55:45.821Z,12.47
2022-12-29T04:58:15.199Z,9.53
2022-12-29T05:00:45.830Z,9.63
2022-12-29T05:03:12.756Z,7.60
2022-12-29T05:05:39.409Z,10.43
2022-12-29T05:08:05.996Z,11.53
2022-12-29T05:10:32.657Z,14.60
2022-12-29T05:12:59.384Z,10.80
2022-12-29T05:15:25.990Z,13.60
2022-12-29T05:18:21.809Z,15.07
2022-12-29T05:20:49.065Z,14.30
2022-12-29T05:23:16.145Z,9.17
2022-12-29T05:25:46.244Z,7.67
2022-12-29T05:28:13.969Z,6.60
2022-12-29T05:30:41.649Z,17.57
2022-12-29T05:33:08.427Z,24.53
2022-12-29T05:35:35.114Z,19.07
2022-12-29T05:38:01.778Z,14.97
2022-12-29T05:40:28.798Z,17.07
2022-12-29T05:42:55.416Z,24.93
2022-12-29T05:45:22.023Z,30.70
2022-12-29T05:47:48.691Z,22.10
2022-12-29T05:50:15.418Z,12.53
2022-12-29T05:52:44.753Z,13.53
2022-12-29T05:55:11.737Z,12.50
2022-12-29T05:57:38.330Z,11.83
2022-12-29T06:00:06.426Z,11.13
2022-12-29T06:02:33.244Z,11.33
2022-12-29T06:05:00.039Z,11.00
2022-12-29T06:07:26.938Z,11.90
2022-12-29T06:09:53.589Z,14.83
2022-12-29T06:12:20.220Z,9.70
2022-12-29T06:14:47.253Z,8.50
2022-12-29T06:17:13.968Z,9.07
2022-12-29T06:19:41.402Z,8.90
2022-12-29T06:22:09.014Z,12.40
2022-12-29T06:24:35.639Z,8.53
2022-12-29T06:27:02.273Z,7.97
2022-12-29T06:29:29.512Z,9.87
2022-12-29T06:31:59.041Z,12.00
2022-12-29T06:34:26.132Z,17.70
2022-12-29T06:36:52.940Z,12.07
2022-12-29T06:39:19.830Z,15.67
2022-12-29T06:41:46.488Z,39.30
2022-12-29T06:44:13.170Z,38.33
2022-12-29T06:46:39.872Z,23.90
2022-12-29T06:49:06.562Z,24.07
2022-12-29T06:51:33.792Z,81.10
2022-12-29T06:54:00.365Z,71.40
2022-12-29T06:56:27.046Z,84.00
2022-12-29T06:58:53.887Z,100.37
2022-12-29T07:01:20.564Z,141.97
2022-12-29T07:03:47.303Z,310.33
2022-12-29T07:06:14.199Z,132.80
2022-12-29T07:08:40.788Z,159.33
2022-12-29T07:11:07.577Z,104.30
2022-12-29T07:13:34.165Z,136.73
2022-12-29T07:16:00.992Z,130.47
2022-12-29T07:18:27.693Z,133.70
2022-12-29T07:20:54.319Z,122.73
2022-12-29T07:23:21.261Z,296.20
2022-12-29T07:25:48.117Z,303.77
2022-12-29T07:28:14.756Z,146.07
2022-12-29T07:30:41.745Z,155.20
2022-12-29T07:33:08.376Z,72.13
2022-12-29T07:35:35.630Z,93.33
2022-12-29T07:38:02.348Z,102.93
2022-12-29T07:40:29.045Z,132.93
2022-12-29T07:42:55.745Z,87.07
2022-12-29T07:45:22.584Z,83.00
2022-12-29T07:47:51.990Z,92.90
2022-12-29T07:50:19.097Z,91.53
2022-12-29T07:52:48.026Z,71.50
2022-12-29T07:55:16.231Z,49.87
2022-12-29T07:57:43.319Z,48.07
2022-12-29T08:00:10.860Z,46.90
2022-12-29T08:02:37.635Z,52.30
2022-12-29T08:05:04.721Z,46.90
2022-12-29T08:07:31.302Z,48.97
2022-12-29T08:09:58.296Z,32.97
2022-12-29T08:12:25.021Z,30.60
2022-12-29T08:14:51.571Z,35.73
2022-12-29T08:17:18.107Z,31.27
2022-12-29T08:19:44.736Z,35.37
2022-12-29T08:22:11.317Z,37.17
2022-12-29T08:24:38.032Z,41.90
2022-12-29T08:27:12.056Z,39.53
2022-12-29T08:29:39.936Z,44.10
2022-12-29T08:32:07.324Z,46.80
2022-12-29T08:34:33.985Z,51.97
2022-12-29T08:37:01.031Z,47.00
2022-12-29T08:39:28.206Z,46.07
2022-12-29T08:41:55.082Z,49.77
2022-12-29T08:44:22.043Z,38.70
2022-12-29T08:46:48.633Z,31.13
2022-12-29T08:49:15.350Z,34.63
2022-12-29T08:51:41.967Z,24.63
2022-12-29T08:54:08.550Z,26.00
2022-12-29T08:56:35.250Z,24.47
2022-12-29T08:59:02.067Z,26.43
2022-12-29T09:01:28.829Z,43.17
2022-12-29T09:06:42.715Z,51.90
2022-12-29T09:09:09.532Z,43.43
2022-12-29T09:11:36.102Z,39.50
2022-12-29T09:14:03.484Z,49.27
2022-12-29T09:16:30.332Z,37.93
2022-12-29T09:18:57.042Z,29.90
2022-12-29T09:21:24.071Z,22.90
2022-12-29T09:23:52.966Z,19.97
2022-12-29T09:26:19.625Z,22.63
2022-12-29T09:28:46.646Z,16.93
2022-12-29T09:31:13.285Z,19.03
2022-12-29T09:33:40.254Z,16.00
2022-12-29T09:36:09.449Z,17.23
2022-12-29T09:38:37.101Z,17.05
2022-12-29T09:41:19.519Z,18.53
2022-12-29T09:44:12.584Z,15.50
2022-12-29T09:46:44.735Z,19.60
2022-12-29T09:49:27.703Z,15.80
2022-12-29T09:51:58.510Z,33.50
2022-12-29T09:54:59.754Z,21.60
2022-12-29T09:57:36.573Z,19.67
2022-12-29T10:00:13.132Z,20.00
2022-12-29T10:02:43.874Z,19.43
2022-12-29T10:05:44.422Z,15.63
2022-12-29T10:08:26.654Z,16.23
2022-12-29T10:11:35.152Z,13.90
2022-12-29T10:14:04.394Z,13.73
2022-12-29T10:17:12.321Z,12.35
2022-12-29T10:20:05.006Z,18.63
2022-12-29T10:22:53.064Z,14.17
2022-12-29T10:25:26.036Z,12.17
2022-12-29T10:27:59.254Z,14.53
2022-12-29T10:30:26.267Z,14.10
2022-12-29T10:32:59.393Z,13.10
2022-12-29T10:35:38.351Z,12.27
2022-12-29T10:38:26.932Z,11.20
2022-12-29T10:41:12.388Z,9.77
2022-12-29T10:43:47.938Z,14.07
2022-12-29T10:46:19.354Z,13.20
2022-12-29T10:48:50.039Z,16.03
2022-12-29T10:51:23.973Z,17.13
2022-12-29T10:54:02.864Z,13.67
2022-12-29T10:56:40.568Z,8.90
2022-12-29T10:59:24.703Z,11.43
2022-12-29T11:02:12.140Z,13.13
2022-12-29T11:05:00.657Z,14.17
2022-12-29T11:07:27.849Z,18.70
2022-12-29T11:09:54.884Z,15.10
2022-12-29T11:12:30.848Z,18.20
2022-12-29T11:15:09.779Z,8.97
2022-12-29T11:17:49.170Z,11.65
2022-12-29T11:20:38.490Z,10.98
2022-12-29T11:23:21.742Z,13.57
2022-12-29T11:26:08.371Z,8.83
2022-12-29T11:28:35.509Z,8.37
2022-12-29T11:31:04.481Z,11.87
2022-12-29T11:33:35.437Z,12.73
2022-12-29T11:36:11.705Z,9.40
2022-12-29T11:38:41.669Z,12.57
2022-12-29T11:41:13.328Z,12.87
2022-12-29T11:43:46.105Z,14.67
2022-12-29T11:46:20.152Z,10.57
2022-12-29T11:48:48.215Z,8.97
2022-12-29T11:51:26.792Z,7.40
2022-12-29T11:53:59.394Z,11.30
2022-12-29T11:56:56.667Z,7.97
2022-12-29T11:59:30.989Z,7.17
2022-12-29T12:01:59.922Z,7.37
2022-12-29T12:04:31.789Z,8.52
2022-12-29T12:07:23.208Z,8.63
2022-12-29T12:10:04.850Z,8.27
2022-12-29T12:12:36.764Z,8.83
2022-12-29T12:15:03.923Z,7.95
2022-12-29T12:17:38.412Z,8.20
2022-12-29T12:20:23.117Z,8.60
2022-12-29T12:23:02.624Z,8.00
2022-12-29T12:25:38.703Z,6.30
2022-12-29T12:28:22.249Z,8.50
2022-12-29T12:30:53.223Z,7.13
2022-12-29T12:33:34.809Z,7.30
2022-12-29T12:36:41.616Z,7.37
2022-12-29T12:39:20.646Z,7.97
2022-12-29T12:42:13.732Z,8.93
2022-12-29T12:44:56.353Z,6.00
2022-12-29T12:47:44.679Z,6.87
2022-12-29T12:50:55.665Z,8.63
2022-12-29T12:53:56.568Z,6.83
2022-12-29T12:56:45.516Z,9.30
2022-12-29T12:59:30.978Z,6.88
2022-12-29T13:02:16.529Z,8.77
2022-12-29T13:04:58.481Z,6.97
2022-12-29T13:07:49.988Z,8.00
2022-12-29T13:10:53.555Z,8.70
2022-12-29T13:14:05.826Z,6.03
2022-12-29T13:16:51.181Z,6.73
2022-12-29T13:19:41.905Z,6.50
2022-12-29T13:22:19.417Z,5.93
2022-12-29T13:24:52.888Z,7.43
2022-12-29T13:27:33.550Z,7.17
2022-12-29T13:30:50.325Z,12.20
2022-12-29T13:33:51.201Z,9.43
2022-12-29T13:36:18.119Z,11.20
2022-12-29T13:38:49.560Z,8.93
2022-12-29T13:41:55.203Z,12.40
2022-12-29T13:44:33.260Z,11.90
2022-12-29T13:47:15.795Z,15.13
2022-12-29T13:49:42.965Z,10.45
2022-12-29T13:52:24.514Z,7.20
2022-12-29T13:55:09.172Z,11.10
2022-12-29T13:57:49.434Z,11.33
2022-12-29T14:00:19.408Z,10.17
2022-12-29T14:02:46.089Z,10.33
2022-12-29T14:05:18.783Z,10.60
2022-12-29T14:07:45.489Z,11.40
2022-12-29T14:10:36.531Z,18.37
2022-12-29T14:13:14.603Z,16.57
2022-12-29T14:15:44.848Z,15.30
2022-12-29T14:18:24.490Z,24.90
2022-12-29T14:20:55.578Z,22.35
2022-12-29T14:23:39.145Z,21.43
2022-12-29T14:26:05.760Z,16.00
2022-12-29T14:28:44.181Z,11.10
2022-12-29T14:31:17.884Z,10.57
2022-12-29T14:34:12.451Z,8.73
2022-12-29T14:36:41.815Z,7.33
2022-12-29T14:39:42.249Z,8.48
2022-12-29T14:42:16.418Z,10.27
2022-12-29T14:44:48.812Z,12.43
2022-12-29T14:47:37.432Z,10.20
2022-12-29T14:50:25.896Z,8.90
2022-12-29T14:52:58.445Z,15.90
2022-12-29T14:55:59.651Z,14.80
2022-12-29T14:58:55.279Z,10.50
2022-12-29T15:01:44.194Z,10.50
2022-12-29T15:04:19.323Z,10.47
2022-12-29T15:06:49.159Z,10.60
2022-12-29T15:09:34.690Z,11.52
2022-12-29T15:12:23.492Z,10.13
2022-12-29T15:14:54.312Z,15.03
2022-12-29T15:17:32.441Z,10.63
2022-12-29T15:20:01.513Z,9.63
2022-12-29T15:22:28.584Z,11.00
2022-12-29T15:24:56.803Z,13.03
2022-12-29T15:27:26.086Z,11.97
2022-12-29T15:30:03.040Z,10.65
2022-12-29T15:32:40.315Z,9.87
2022-12-29T15:35:26.269Z,12.33
2022-12-29T15:37:52.969Z,12.03
2022-12-29T15:40:31.471Z,18.33
2022-12-29T15:43:16.613Z,20.83
2022-12-29T15:45:43.645Z,15.87
2022-12-29T15:48:22.415Z,23.40
2022-12-29T15:50:49.894Z,31.43
2022-12-29T15:53:29.751Z,28.20
2022-12-29T15:56:03.984Z,21.13
2022-12-29T15:58:32.085Z,15.87
2022-12-29T16:01:01.480Z,19.97
2022-12-29T16:03:33.421Z,28.33
2022-12-29T16:06:28.421Z,25.20
2022-12-29T16:09:15.606Z,22.57
2022-12-29T16:11:47.407Z,20.47
2022-12-29T16:14:19.776Z,35.47
2022-12-29T16:16:48.595Z,102.33
2022-12-29T16:19:22.653Z,80.37
2022-12-29T16:21:49.497Z,74.57
2022-12-29T16:24:20.220Z,86.33
2022-12-29T16:26:54.861Z,62.23
2022-12-29T16:29:22.881Z,70.83
2022-12-29T16:31:50.125Z,71.30
2022-12-29T16:34:24.696Z,38.43
2022-12-29T16:37:00.050Z,23.07
2022-12-29T16:39:29.681Z,28.50
2022-12-29T16:41:57.103Z,37.10
2022-12-29T16:44:29.189Z,50.23
2022-12-29T16:47:10.599Z,51.37
2022-12-29T16:49:40.648Z,33.80
2022-12-29T16:52:35.038Z,29.03
2022-12-29T16:55:02.861Z,37.47
2022-12-29T16:57:33.113Z,35.80
2022-12-29T17:00:06.262Z,36.30
2022-12-29T17:02:34.968Z,39.53
2022-12-29T17:05:01.735Z,40.20
2022-12-29T17:07:29.284Z,50.77
2022-12-29T17:09:55.997Z,37.37
2022-12-29T17:12:34.655Z,46.03
2022-12-29T17:15:26.516Z,38.47
2022-12-29T17:17:56.811Z,32.10
2022-12-29T17:20:29.655Z,34.03
2022-12-29T17:22:57.695Z,27.80
2022-12-29T17:25:29.884Z,38.67
2022-12-29T17:27:59.967Z,31.23
2022-12-29T17:30:33.528Z,28.47
2022-12-29T17:33:13.318Z,25.63
2022-12-29T17:35:40.045Z,23.17
2022-12-29T17:38:27.939Z,21.57
2022-12-29T17:40:54.836Z,20.73
2022-12-29T17:43:21.835Z,20.93
2022-12-29T17:45:54.038Z,21.37
2022-12-29T17:48:22.015Z,21.60
2022-12-29T17:50:53.797Z,22.50
2022-12-29T17:53:24.292Z,23.00
2022-12-29T17:55:51.539Z,21.33
2022-12-29T17:58:23.745Z,24.60
2022-12-29T18:00:53.372Z,20.87
2022-12-29T18:03:24.898Z,17.95
2022-12-29T18:05:52.151Z,22.27
2022-12-29T18:08:21.942Z,24.27
2022-12-29T18:10:48.775Z,21.75
2022-12-29T18:13:30.841Z,25.17
2022-12-29T18:16:02.841Z,24.63
2022-12-29T18:18:29.483Z,27.57
2022-12-29T18:20:59.644Z,33.57
2022-12-29T18:25:59.255Z,23.57
2022-12-29T18:28:26.323Z,38.43
2022-12-29T18:30:54.013Z,27.97
2022-12-29T18:33:26.026Z,31.93
2022-12-29T18:36:01.521Z,27.83
2022-12-29T18:38:29.876Z,29.60
2022-12-29T18:40:58.585Z,32.17
2022-12-29T18:43:25.306Z,30.50
2022-12-29T18:45:51.985Z,27.90
2022-12-29T18:48:19.963Z,37.10
2022-12-29T18:50:49.272Z,33.63
2022-12-29T18:53:17.491Z,29.52
2022-12-29T18:55:44.252Z,37.17
2022-12-29T18:58:10.884Z,31.67
2022-12-29T19:00:38.055Z,32.70
2022-12-29T19:03:04.786Z,33.67
2022-12-29T19:05:37.208Z,35.47
2022-12-29T19:08:05.084Z,32.90
2022-12-29T19:10:32.439Z,29.43
2022-12-29T19:12:59.463Z,29.43
2022-12-29T19:15:29.704Z,30.00
2022-12-29T19:20:45.664Z,37.03
2022-12-29T19:23:14.548Z,31.37
2022-12-29T19:25:41.577Z,30.27
2022-12-29T19:28:16.986Z,30.10
2022-12-29T19:30:45.320Z,27.57
2022-12-29T19:33:15.910Z,39.80
2022-12-29T19:35:43.083Z,33.10
2022-12-29T19:38:12.986Z,31.90
2022-12-29T19:40:44.218Z,36.15
2022-12-29T19:43:12.249Z,51.27
2022-12-29T19:45:40.666Z,32.10
2022-12-29T19:48:09.240Z,29.57
2022-12-29T19:50:35.897Z,30.30
2022-12-29T19:53:05.536Z,35.77
2022-12-29T19:55:32.706Z,41.75
2022-12-29T19:57:59.453Z,40.30
2022-12-29T20:00:26.243Z,53.37
2022-12-29T20:02:53.224Z,51.50
2022-12-29T20:05:22.592Z,52.93
2022-12-29T20:07:50.238Z,42.20
2022-12-29T20:10:16.876Z,48.00
2022-12-29T20:12:43.509Z,36.80
2022-12-29T20:15:11.848Z,38.33
2022-12-29T20:18:12.043Z,50.70
2022-12-29T20:20:25.117Z,44.20
2022-12-29T20:22:51.702Z,43.33
2022-12-29T20:25:44.067Z,41.13
2022-12-29T20:28:05.240Z,34.27
2022-12-29T20:30:31.892Z,35.00
2022-12-29T20:33:01.079Z,35.77
2022-12-29T20:35:29.961Z,29.90
2022-12-29T20:37:56.576Z,29.23
2022-12-29T20:40:23.149Z,25.50
2022-12-29T20:42:49.760Z,29.03
2022-12-29T20:45:16.357Z,34.80
2022-12-29T20:47:42.929Z,29.87
2022-12-29T20:50:09.528Z,32.10
2022-12-29T20:52:36.127Z,33.73
2022-12-29T20:55:02.717Z,34.47
2022-12-29T20:57:39.319Z,35.10
2022-12-29T21:00:22.104Z,36.37
2022-12-29T21:02:49.721Z,33.77
2022-12-29T21:05:24.992Z,32.57
2022-12-29T21:07:53.050Z,32.67
2022-12-29T21:10:19.875Z,28.50
2022-12-29T21:12:46.510Z,33.20
2022-12-29T21:15:15.667Z,29.53
2022-12-29T21:17:45.348Z,24.77
2022-12-29T21:20:20.585Z,22.70
2022-12-29T21:22:48.052Z,23.90
2022-12-29T21:25:15.047Z,26.40
2022-12-29T21:27:44.807Z,24.73
2022-12-29T21:30:12.106Z,25.15
2022-12-29T21:32:39.415Z,30.67
2022-12-29T21:35:06.851Z,43.20
2022-12-29T21:37:34.380Z,30.83
2022-12-29T21:40:00.986Z,24.90
2022-12-29T21:42:27.765Z,25.13
2022-12-29T21:45:19.857Z,24.40
2022-12-29T21:48:05.494Z,26.17
2022-12-29T21:50:32.113Z,25.70
2022-12-29T21:52:58.712Z,24.03
2022-12-29T21:55:25.324Z,27.80
2022-12-29T21:58:10.881Z,28.87
2022-12-29T22:00:55.683Z,90.60
2022-12-29T22:03:44.277Z,85.47
2022-12-29T22:06:30.124Z,238.10
2022-12-29T22:09:15.871Z,133.50
2022-12-29T22:12:00.660Z,81.77
2022-12-29T22:14:27.256Z,68.83
2022-12-29T22:16:53.900Z,34.60
2022-12-29T22:19:20.598Z,30.83
2022-12-29T22:21:47.243Z,28.53
2022-12-29T22:24:13.860Z,23.87
2022-12-29T22:26:40.476Z,28.00
2022-12-29T22:29:07.172Z,30.00
2022-12-29T22:31:34.130Z,24.97
2022-12-29T22:34:04.996Z,30.87
2022-12-29T22:36:32.690Z,26.63
2022-12-29T22:38:59.642Z,24.37
2022-12-29T22:41:26.250Z,25.17
2022-12-29T22:43:52.919Z,31.90
2022-12-29T22:46:19.880Z,26.03
2022-12-29T22:48:46.706Z,31.10
2022-12-29T22:51:13.983Z,26.07
2022-12-29T22:53:41.355Z,31.03
2022-12-29T22:56:11.225Z,29.20
2022-12-29T22:58:45.318Z,24.45
2022-12-29T23:01:19.142Z,23.47
2022-12-29T23:03:46.034Z,26.33
2022-12-29T23:06:14.679Z,30.83
2022-12-29T23:08:41.405Z,24.73
2022-12-29T23:11:11.974Z,28.10
2022-12-29T23:13:41.186Z,26.57
2022-12-29T23:16:08.217Z,26.77
2022-12-29T23:18:36.576Z,28.97
2022-12-29T23:21:03.261Z,24.40
2022-12-29T23:23:49.729Z,23.80
2022-12-29T23:26:17.894Z,26.23
2022-12-29T23:28:44.689Z,31.13
2022-12-29T23:31:11.351Z,32.67
2022-12-29T23:33:38.091Z,29.90
2022-12-29T23:36:05.370Z,29.17
2022-12-29T23:38:32.095Z,22.30
2022-12-29T23:40:59.145Z,29.23
2022-12-29T23:43:25.970Z,30.63
2022-12-29T23:45:52.716Z,29.83
2022-12-29T23:48:19.917Z,24.80
2022-12-29T23:50:46.936Z,31.70
2022-12-29T23:53:13.734Z,27.73
2022-12-29T23:55:44.197Z,28.77
